createdAt,value
2019-01-27T00:01:42.957Z,5.83
2019-01-27T00:06:48.859Z,6.33
2019-01-27T00:11:54.798Z,5.77
2019-01-27T00:17:00.763Z,5.23
2019-01-27T00:22:07.251Z,5.23
2019-01-27T00:27:13.218Z,6.40
2019-01-27T00:32:19.196Z,5.30
2019-01-27T00:37:25.078Z,4.80
2019-01-27T00:42:31.106Z,4.43
2019-01-27T00:47:37.126Z,4.77
2019-01-27T00:52:43.101Z,5.03
2019-01-27T00:57:49.287Z,5.63
2019-01-27T01:02:55.360Z,4.40
2019-01-27T01:08:01.417Z,3.87
2019-01-27T01:13:07.775Z,4.37
2019-01-27T01:18:13.687Z,4.10
2019-01-27T01:23:21.391Z,4.30
2019-01-27T01:28:27.456Z,4.60
2019-01-27T01:33:33.545Z,5.47
2019-01-27T01:38:39.388Z,5.23
2019-01-27T01:43:45.399Z,4.93
2019-01-27T01:48:51.405Z,4.33
2019-01-27T01:53:57.326Z,5.03
2019-01-27T01:59:03.316Z,4.03
2019-01-27T02:04:09.463Z,4.33
2019-01-27T02:09:15.540Z,3.60
2019-01-27T02:14:21.450Z,4.40
2019-01-27T02:19:27.612Z,3.73
2019-01-27T02:24:33.739Z,4.07
2019-01-27T02:29:39.852Z,3.00
2019-01-27T02:34:45.713Z,3.67
2019-01-27T02:39:51.598Z,2.87
2019-01-27T02:44:57.719Z,3.40
2019-01-27T02:50:03.836Z,2.50
2019-01-27T02:55:10.001Z,4.20
2019-01-27T03:00:16.404Z,2.40
2019-01-27T03:05:36.964Z,3.20
2019-01-27T03:10:43.192Z,2.53
2019-01-27T03:15:49.358Z,3.07
2019-01-27T03:20:55.329Z,3.43
2019-01-27T03:26:01.453Z,2.47
2019-01-27T03:31:07.505Z,2.00
2019-01-27T03:36:13.654Z,2.10
2019-01-27T03:41:19.743Z,3.17
2019-01-27T03:46:25.625Z,2.20
2019-01-27T03:51:31.576Z,2.73
2019-01-27T03:56:37.648Z,3.37
2019-01-27T04:01:43.807Z,2.40
2019-01-27T04:06:49.809Z,2.13
2019-01-27T04:11:55.759Z,2.13
2019-01-27T04:17:01.800Z,2.50
2019-01-27T04:22:07.805Z,2.20
2019-01-27T04:27:13.902Z,2.60
2019-01-27T04:32:19.872Z,2.33
2019-01-27T04:37:25.860Z,3.50
2019-01-27T04:42:31.792Z,1.67
2019-01-27T04:47:37.677Z,1.60
2019-01-27T04:52:43.968Z,1.50
2019-01-27T04:57:49.965Z,1.53
2019-01-27T05:03:05.070Z,1.73
2019-01-27T05:08:10.988Z,1.63
2019-01-27T05:13:16.990Z,1.00
2019-01-27T05:18:22.932Z,1.50
2019-01-27T05:23:28.711Z,1.10
2019-01-27T05:28:34.780Z,1.53
2019-01-27T05:33:40.847Z,2.37
2019-01-27T05:38:46.817Z,1.03
2019-01-27T05:43:52.932Z,0.80
2019-01-27T05:48:59.005Z,1.13
2019-01-27T05:54:05.249Z,1.83
2019-01-27T05:59:11.375Z,1.50
2019-01-27T06:04:17.389Z,1.53
2019-01-27T06:09:23.570Z,1.10
2019-01-27T06:14:29.659Z,1.60
2019-01-27T06:19:35.624Z,1.37
2019-01-27T06:24:41.587Z,0.97
2019-01-27T06:29:47.669Z,1.40
2019-01-27T06:34:53.655Z,1.70
2019-01-27T06:39:59.819Z,1.43
2019-01-27T06:45:07.155Z,2.10
2019-01-27T06:50:13.416Z,1.73
2019-01-27T06:55:19.404Z,2.03
2019-01-27T07:00:35.691Z,2.90
2019-01-27T07:05:58.816Z,2.47
2019-01-27T07:11:24.036Z,6.10
2019-01-27T07:17:01.139Z,5.17
2019-01-27T07:22:34.965Z,8.17
2019-01-27T07:28:08.893Z,18.20
2019-01-27T07:33:22.931Z,19.20
2019-01-27T07:38:44.056Z,27.87
2019-01-27T07:44:07.951Z,28.40
2019-01-27T07:49:31.663Z,24.00
2019-01-27T07:55:07.208Z,26.87
2019-01-27T08:00:24.194Z,19.03
2019-01-27T08:05:38.323Z,18.43
2019-01-27T08:11:07.201Z,14.93
2019-01-27T08:16:38.293Z,13.83
2019-01-27T08:21:54.914Z,10.10
2019-01-27T08:27:38.026Z,9.67
2019-01-27T08:33:01.743Z,10.93
2019-01-27T08:38:28.198Z,13.83
2019-01-27T08:43:51.900Z,25.17
2019-01-27T08:48:58.108Z,17.57
2019-01-27T08:54:04.303Z,11.87
2019-01-27T08:59:10.160Z,9.63
2019-01-27T09:04:38.200Z,16.07
2019-01-27T09:10:01.987Z,26.43
2019-01-27T09:15:30.397Z,15.67
2019-01-27T09:20:45.448Z,14.17
2019-01-27T09:26:01.492Z,6.33
2019-01-27T09:31:25.065Z,13.00
2019-01-27T09:36:48.754Z,16.63
2019-01-27T09:42:04.451Z,18.80
2019-01-27T09:47:29.268Z,15.63
2019-01-27T09:53:06.164Z,23.37
2019-01-27T09:58:29.842Z,13.10
2019-01-27T10:03:44.423Z,11.23
2019-01-27T10:09:12.207Z,10.90
2019-01-27T10:14:24.032Z,21.67
2019-01-27T10:19:58.356Z,11.67
2019-01-27T10:25:40.895Z,17.73
2019-01-27T10:31:01.474Z,13.00
2019-01-27T10:36:29.592Z,3.93
2019-01-27T10:41:54.408Z,57.07
2019-01-27T10:47:15.226Z,25.50
2019-01-27T10:52:43.273Z,65.37
2019-01-27T10:58:11.305Z,16.10
2019-01-27T11:03:42.128Z,17.13
2019-01-27T11:09:22.206Z,18.63
2019-01-27T11:14:47.248Z,41.23
2019-01-27T11:20:05.304Z,8.30
2019-01-27T11:25:29.093Z,6.50
2019-01-27T11:30:52.578Z,70.13
2019-01-27T11:36:14.811Z,27.47
2019-01-27T11:41:34.495Z,13.83
2019-01-27T11:46:58.285Z,18.20
2019-01-27T11:52:15.532Z,23.83
2019-01-27T11:57:20.379Z,7.73
2019-01-27T12:02:26.326Z,15.70
2019-01-27T12:07:32.288Z,30.40
2019-01-27T12:12:38.347Z,11.90
2019-01-27T12:17:44.347Z,10.83
2019-01-27T12:22:50.400Z,17.10
2019-01-27T12:27:56.539Z,6.03
2019-01-27T12:33:02.547Z,20.23
2019-01-27T12:38:08.790Z,13.57
2019-01-27T12:43:14.722Z,9.53
2019-01-27T12:48:21.001Z,12.97
2019-01-27T12:53:27.053Z,5.43
2019-01-27T12:58:33.111Z,5.87
2019-01-27T13:03:39.150Z,6.50
2019-01-27T13:08:45.295Z,4.40
2019-01-27T13:13:51.458Z,10.27
2019-01-27T13:18:57.561Z,2.57
2019-01-27T13:24:03.542Z,5.00
2019-01-27T13:29:09.701Z,3.13
2019-01-27T13:34:15.678Z,4.50
2019-01-27T13:39:22.262Z,3.80
2019-01-27T13:44:28.439Z,3.37
2019-01-27T13:49:34.389Z,3.90
2019-01-27T13:54:40.358Z,6.27
2019-01-27T13:59:46.339Z,2.20
2019-01-27T14:04:52.297Z,2.93
2019-01-27T14:09:58.435Z,14.07
2019-01-27T14:15:04.939Z,4.30
2019-01-27T14:20:12.418Z,4.37
2019-01-27T14:25:19.769Z,3.73
2019-01-27T14:30:30.680Z,4.30
2019-01-27T14:35:36.559Z,4.70
2019-01-27T14:40:42.539Z,4.60
2019-01-27T14:45:48.573Z,5.90
2019-01-27T14:50:54.686Z,1.50
2019-01-27T14:56:00.632Z,2.63
2019-01-27T15:01:07.032Z,1.47
2019-01-27T15:06:12.870Z,2.53
2019-01-27T15:11:18.972Z,2.07
2019-01-27T15:16:24.948Z,1.70
2019-01-27T15:21:30.964Z,3.60
2019-01-27T15:26:36.932Z,5.87
2019-01-27T15:31:42.903Z,5.90
2019-01-27T15:36:49.019Z,3.13
2019-01-27T15:41:55.003Z,3.60
2019-01-27T15:47:01.087Z,5.00
2019-01-27T15:52:06.983Z,4.80
2019-01-27T15:57:12.997Z,3.30
2019-01-27T16:02:19.099Z,2.30
2019-01-27T16:07:25.282Z,2.83
2019-01-27T16:12:31.359Z,4.37
2019-01-27T16:17:37.424Z,7.43
2019-01-27T16:22:47.022Z,5.93
2019-01-27T16:27:52.947Z,7.47
2019-01-27T16:33:02.677Z,7.93
2019-01-27T16:38:08.696Z,7.10
2019-01-27T16:43:14.860Z,8.60
2019-01-27T16:48:21.815Z,7.50
2019-01-27T16:53:27.978Z,7.93
2019-01-27T16:58:34.472Z,11.90
2019-01-27T17:03:40.687Z,9.83
2019-01-27T17:08:47.102Z,10.30
2019-01-27T17:13:53.299Z,10.63
2019-01-27T17:18:59.466Z,8.93
2019-01-27T17:24:05.650Z,9.70
2019-01-27T17:29:11.682Z,9.77
2019-01-27T17:34:17.843Z,10.50
2019-01-27T17:39:23.820Z,11.37
2019-01-27T17:44:29.800Z,10.10
2019-01-27T17:49:35.977Z,16.33
2019-01-27T17:54:42.088Z,28.27
2019-01-27T17:59:57.706Z,33.73
2019-01-27T18:05:23.926Z,38.67
2019-01-27T18:10:47.834Z,24.67
2019-01-27T18:15:54.063Z,20.83
2019-01-27T18:21:00.137Z,16.27
2019-01-27T18:26:06.129Z,24.17
2019-01-27T18:31:12.312Z,22.47
2019-01-27T18:36:18.503Z,26.87
2019-01-27T18:41:24.561Z,28.87
2019-01-27T18:46:30.728Z,30.30
2019-01-27T18:51:36.694Z,32.50
2019-01-27T18:57:07.801Z,24.93
2019-01-27T19:02:22.580Z,21.40
2019-01-27T19:07:59.754Z,25.50
2019-01-27T19:13:23.677Z,17.17
2019-01-27T19:18:54.439Z,11.77
2019-01-27T19:24:19.447Z,15.23
2019-01-27T19:29:44.845Z,11.27
2019-01-27T19:35:02.489Z,10.10
2019-01-27T19:40:40.410Z,18.03
2019-01-27T19:45:53.842Z,16.03
2019-01-27T19:51:17.475Z,20.20
2019-01-27T19:56:42.470Z,31.47
2019-01-27T20:02:13.626Z,28.13
2019-01-27T20:07:41.961Z,30.33
2019-01-27T20:13:08.700Z,29.40
2019-01-27T20:18:31.163Z,20.63
2019-01-27T20:23:53.400Z,19.57
2019-01-27T20:29:10.857Z,18.27
2019-01-27T20:34:46.118Z,15.17
2019-01-27T20:40:01.378Z,13.50
2019-01-27T20:45:20.692Z,10.97
2019-01-27T20:50:39.436Z,11.50
2019-01-27T20:56:22.711Z,10.93
2019-01-27T21:01:46.602Z,14.70
2019-01-27T21:07:05.273Z,14.03
2019-01-27T21:12:45.208Z,13.27
2019-01-27T21:18:10.256Z,9.10
2019-01-27T21:23:16.411Z,11.17
2019-01-27T21:28:22.459Z,11.00
2019-01-27T21:33:28.516Z,16.10
2019-01-27T21:38:35.517Z,9.27
2019-01-27T21:43:41.553Z,9.43
2019-01-27T21:48:47.615Z,10.00
2019-01-27T21:53:53.663Z,9.00
2019-01-27T21:58:59.821Z,11.00
2019-01-27T22:04:05.900Z,10.23
2019-01-27T22:09:12.143Z,10.20
2019-01-27T22:14:18.252Z,10.17
2019-01-27T22:19:24.313Z,24.13
2019-01-27T22:24:31.228Z,12.70
2019-01-27T22:29:37.297Z,15.97
2019-01-27T22:34:43.470Z,16.43
2019-01-27T22:39:49.582Z,37.10
2019-01-27T22:44:55.675Z,35.87
2019-01-27T22:50:01.800Z,19.17
2019-01-27T22:55:08.172Z,19.97
2019-01-27T23:00:40.099Z,11.80
2019-01-27T23:05:46.050Z,17.27
2019-01-27T23:10:52.145Z,13.50
2019-01-27T23:15:58.177Z,20.63
2019-01-27T23:21:04.467Z,15.00
2019-01-27T23:26:11.606Z,19.47
2019-01-27T23:31:17.735Z,20.80
2019-01-27T23:36:23.693Z,24.50
2019-01-27T23:41:29.918Z,44.77
2019-01-27T23:46:36.376Z,65.90
2019-01-27T23:51:42.496Z,48.47
2019-01-27T23:56:48.519Z,34.73
